sensor_id;sensor_type;location;lat;lon;timestamp;pressure;altitude;pressure_sealevel;temperature;humidity
45621;BME280;31345;51.522;10.702;2023-02-12T00:00:35;100995.72;;;5.79;100.00
45621;BME280;31345;51.522;10.702;2023-02-12T00:03:04;100996.44;;;5.89;100.00
45621;BME280;31345;51.522;10.702;2023-02-12T00:05:38;101001.59;;;5.91;100.00
45621;BME280;31345;51.522;10.702;2023-02-12T00:08:11;101013.53;;;6.02;100.00
45621;BME280;31345;51.522;10.702;2023-02-12T00:10:39;101009.03;;;6.12;100.00
45621;BME280;31345;51.522;10.702;2023-02-12T00:13:13;101011.06;;;5.95;100.00
45621;BME280;31345;51.522;10.702;2023-02-12T00:15:41;101006.72;;;5.97;100.00
45621;BME280;31345;51.522;10.702;2023-02-12T00:18:10;101012.72;;;6.00;100.00
45621;BME280;31345;51.522;10.702;2023-02-12T00:20:43;101011.94;;;5.95;100.00
45621;BME280;31345;51.522;10.702;2023-02-12T00:23:10;101016.06;;;6.07;100.00
45621;BME280;31345;51.522;10.702;2023-02-12T00:25:43;101016.19;;;5.99;100.00
45621;BME280;31345;51.522;10.702;2023-02-12T00:28:16;101012.66;;;6.05;100.00
45621;BME280;31345;51.522;10.702;2023-02-12T00:30:48;101011.94;;;5.95;100.00
45621;BME280;31345;51.522;10.702;2023-02-12T00:33:22;101017.94;;;5.97;100.00
45621;BME280;31345;51.522;10.702;2023-02-12T00:35:54;101013.47;;;6.07;100.00
45621;BME280;31345;51.522;10.702;2023-02-12T00:38:27;101023.31;;;5.85;100.00
45621;BME280;31345;51.522;10.702;2023-02-12T00:40:55;101019.94;;;5.80;100.00
45621;BME280;31345;51.522;10.702;2023-02-12T00:43:27;101019.84;;;5.86;100.00
45621;BME280;31345;51.522;10.702;2023-02-12T00:45:55;101021.50;;;5.90;100.00
45621;BME280;31345;51.522;10.702;2023-02-12T00:48:29;101015.72;;;5.72;100.00
45621;BME280;31345;51.522;10.702;2023-02-12T00:51:02;101020.84;;;5.77;100.00
45621;BME280;31345;51.522;10.702;2023-02-12T00:53:35;101019.94;;;5.81;100.00
45621;BME280;31345;51.522;10.702;2023-02-12T00:56:03;101026.72;;;5.88;100.00
45621;BME280;31345;51.522;10.702;2023-02-12T00:58:31;101026.59;;;5.98;100.00
45621;BME280;31345;51.522;10.702;2023-02-12T01:01:04;101028.44;;;5.91;100.00
45621;BME280;31345;51.522;10.702;2023-02-12T01:03:33;101026.03;;;5.79;100.00
45621;BME280;31345;51.522;10.702;2023-02-12T01:06:06;101021.72;;;5.74;100.00
45621;BME280;31345;51.522;10.702;2023-02-12T01:08:39;101023.63;;;5.65;100.00
45621;BME280;31345;51.522;10.702;2023-02-12T01:11:12;101025.94;;;5.83;100.00
45621;BME280;31345;51.522;10.702;2023-02-12T01:13:45;101025.13;;;5.81;100.00
45621;BME280;31345;51.522;10.702;2023-02-12T01:16:19;101028.56;;;5.82;100.00
45621;BME280;31345;51.522;10.702;2023-02-12T01:18:54;101030.34;;;5.80;100.00
45621;BME280;31345;51.522;10.702;2023-02-12T01:21:24;101027.56;;;5.91;100.00
45621;BME280;31345;51.522;10.702;2023-02-12T01:23:52;101037.78;;;6.01;100.00
45621;BME280;31345;51.522;10.702;2023-02-12T01:26:25;101025.81;;;5.93;100.00
45621;BME280;31345;51.522;10.702;2023-02-12T01:28:55;101021.44;;;5.96;100.00
45621;BME280;31345;51.522;10.702;2023-02-12T01:31:25;101013.88;;;5.79;100.00
45621;BME280;31345;51.522;10.702;2023-02-12T01:33:59;101014.66;;;5.86;100.00
45621;BME280;31345;51.522;10.702;2023-02-12T01:36:33;101020.69;;;5.88;100.00
45621;BME280;31345;51.522;10.702;2023-02-12T01:39:06;101027.34;;;6.05;100.00
45621;BME280;31345;51.522;10.702;2023-02-12T01:41:35;101020.41;;;6.07;100.00
45621;BME280;31345;51.522;10.702;2023-02-12T01:44:17;101020.50;;;6.00;100.00
45621;BME280;31345;51.522;10.702;2023-02-12T01:46:55;101019.00;;;5.87;100.00
45621;BME280;31345;51.522;10.702;2023-02-12T01:49:32;101020.00;;;5.75;100.00
45621;BME280;31345;51.522;10.702;2023-02-12T01:52:04;101019.31;;;5.62;100.00
45621;BME280;31345;51.522;10.702;2023-02-12T01:54:39;101019.38;;;5.59;100.00
45621;BME280;31345;51.522;10.702;2023-02-12T01:57:13;101025.31;;;5.69;100.00
45621;BME280;31345;51.522;10.702;2023-02-12T01:59:49;101026.88;;;5.78;100.00
45621;BME280;31345;51.522;10.702;2023-02-12T02:02:23;101029.44;;;5.82;100.00
45621;BME280;31345;51.522;10.702;2023-02-12T02:04:59;101027.78;;;5.76;100.00
45621;BME280;31345;51.522;10.702;2023-02-12T02:07:29;101026.22;;;5.65;100.00
45621;BME280;31345;51.522;10.702;2023-02-12T02:10:03;101025.16;;;5.78;100.00
45621;BME280;31345;51.522;10.702;2023-02-12T02:12:31;101028.56;;;5.82;100.00
45621;BME280;31345;51.522;10.702;2023-02-12T02:15:16;101021.50;;;5.90;100.00
45621;BME280;31345;51.522;10.702;2023-02-12T02:17:52;101029.03;;;6.09;100.00
45621;BME280;31345;51.522;10.702;2023-02-12T02:21:02;101024.13;;;5.88;100.00
45621;BME280;31345;51.522;10.702;2023-02-12T02:27:03;101013.81;;;5.85;100.00
45621;BME280;31345;51.522;10.702;2023-02-12T02:32:48;101024.97;;;5.92;100.00
45621;BME280;31345;51.522;10.702;2023-02-12T02:35:23;101021.66;;;5.81;100.00
45621;BME280;31345;51.522;10.702;2023-02-12T02:38:05;101021.44;;;5.96;100.00
45621;BME280;31345;51.522;10.702;2023-02-12T02:40:38;101017.25;;;5.86;100.00
45621;BME280;31345;51.522;10.702;2023-02-12T02:43:15;101017.09;;;5.97;100.00
45621;BME280;31345;51.522;10.702;2023-02-12T02:45:51;101011.91;;;5.97;100.00
45621;BME280;31345;51.522;10.702;2023-02-12T02:48:26;101013.69;;;5.93;100.00
45621;BME280;31345;51.522;10.702;2023-02-12T02:51:03;101013.59;;;6.01;100.00
45621;BME280;31345;51.522;10.702;2023-02-12T02:53:38;101009.56;;;5.80;100.00
45621;BME280;31345;51.522;10.702;2023-02-12T02:56:15;101009.53;;;5.81;100.00
45621;BME280;31345;51.522;10.702;2023-02-12T02:58:52;101009.59;;;5.76;100.00
45621;BME280;31345;51.522;10.702;2023-02-12T03:01:29;101006.16;;;5.74;100.00
45621;BME280;31345;51.522;10.702;2023-02-12T03:04:03;101012.25;;;5.73;100.00
45621;BME280;31345;51.522;10.702;2023-02-12T03:06:35;101018.34;;;5.69;100.00
45621;BME280;31345;51.522;10.702;2023-02-12T03:09:17;101011.34;;;5.74;100.00
45621;BME280;31345;51.522;10.702;2023-02-12T03:11:46;101006.09;;;5.81;100.00
45621;BME280;31345;51.522;10.702;2023-02-12T03:14:19;101013.72;;;5.90;100.00
45621;BME280;31345;51.522;10.702;2023-02-12T03:16:53;101013.72;;;5.90;100.00
45621;BME280;31345;51.522;10.702;2023-02-12T03:19:30;101010.09;;;6.02;100.00
45621;BME280;31345;51.522;10.702;2023-02-12T03:22:08;101011.88;;;5.98;100.00
45621;BME280;31345;51.522;10.702;2023-02-12T03:24:44;101008.47;;;5.95;100.00
45621;BME280;31345;51.522;10.702;2023-02-12T03:27:16;101013.69;;;5.93;100.00
45621;BME280;31345;51.522;10.702;2023-02-12T03:29:50;101014.66;;;5.84;100.00
45621;BME280;31345;51.522;10.702;2023-02-12T03:32:29;101020.53;;;5.99;100.00
45621;BME280;31345;51.522;10.702;2023-02-12T03:35:09;101014.59;;;5.91;100.00
45621;BME280;31345;51.522;10.702;2023-02-12T03:37:52;101020.69;;;5.88;100.00
45621;BME280;31345;51.522;10.702;2023-02-12T03:40:31;101019.03;;;5.84;100.00
45621;BME280;31345;51.522;10.702;2023-02-12T03:43:03;101025.06;;;5.84;100.00
45621;BME280;31345;51.522;10.702;2023-02-12T03:45:40;101033.69;;;5.86;100.00
45621;BME280;31345;51.522;10.702;2023-02-12T03:48:21;101023.38;;;5.82;100.00
45621;BME280;31345;51.522;10.702;2023-02-12T03:50:53;101025.78;;;5.94;100.00
45621;BME280;31345;51.522;10.702;2023-02-12T03:53:28;101020.66;;;5.91;100.00
45621;BME280;31345;51.522;10.702;2023-02-12T03:56:05;101033.69;;;5.86;100.00
45621;BME280;31345;51.522;10.702;2023-02-12T03:58:40;101036.25;;;5.89;100.00
45621;BME280;31345;51.522;10.702;2023-02-12T04:01:14;101038.75;;;5.96;100.00
45621;BME280;31345;51.522;10.702;2023-02-12T04:03:47;101043.13;;;5.92;100.00
45621;BME280;31345;51.522;10.702;2023-02-12T04:06:42;101044.84;;;5.92;100.00
45621;BME280;31345;51.522;10.702;2023-02-12T04:09:17;101043.19;;;5.87;100.00
45621;BME280;31345;51.522;10.702;2023-02-12T04:12:01;101046.59;;;5.93;100.00
45621;BME280;31345;51.522;10.702;2023-02-12T04:14:43;101049.38;;;5.79;100.00
45621;BME280;31345;51.522;10.702;2023-02-12T04:17:21;101053.69;;;5.81;100.00
45621;BME280;31345;51.522;10.702;2023-02-12T04:20:06;101051.91;;;5.82;100.00
45621;BME280;31345;51.522;10.702;2023-02-12T04:22:45;101053.41;;;5.98;100.00
45621;BME280;31345;51.522;10.702;2023-02-12T04:25:23;101052.69;;;5.88;100.00
45621;BME280;31345;51.522;10.702;2023-02-12T04:27:59;101051.06;;;5.83;100.00
45621;BME280;31345;51.522;10.702;2023-02-12T04:30:34;101057.84;;;5.90;100.00
45621;BME280;31345;51.522;10.702;2023-02-12T04:33:10;101056.09;;;5.94;100.00
45621;BME280;31345;51.522;10.702;2023-02-12T04:35:49;101065.53;;;5.99;100.00
45621;BME280;31345;51.522;10.702;2023-02-12T04:38:26;101066.56;;;5.87;100.00
45621;BME280;31345;51.522;10.702;2023-02-12T04:40:55;101065.66;;;5.90;100.00
45621;BME280;31345;51.522;10.702;2023-02-12T04:43:30;101070.81;;;5.92;100.00
45621;BME280;31345;51.522;10.702;2023-02-12T04:46:00;101075.25;;;5.83;100.00
45621;BME280;31345;51.522;10.702;2023-02-12T04:48:32;101078.41;;;6.06;100.00
45621;BME280;31345;51.522;10.702;2023-02-12T04:51:05;101071.72;;;5.89;100.00
45621;BME280;31345;51.522;10.702;2023-02-12T04:53:39;101069.06;;;5.95;100.00
45621;BME280;31345;51.522;10.702;2023-02-12T04:56:08;101068.25;;;5.88;100.00
45621;BME280;31345;51.522;10.702;2023-02-12T04:58:43;101075.22;;;5.86;100.00
45621;BME280;31345;51.522;10.702;2023-02-12T05:01:16;101072.69;;;5.82;100.00
45621;BME280;31345;51.522;10.702;2023-02-12T05:03:48;101069.22;;;5.83;100.00
45621;BME280;31345;51.522;10.702;2023-02-12T05:06:16;101077.91;;;5.80;100.00
45621;BME280;31345;51.522;10.702;2023-02-12T05:08:51;101074.53;;;5.73;100.00
45621;BME280;31345;51.522;10.702;2023-02-12T05:11:19;101084.91;;;5.73;100.00
45621;BME280;31345;51.522;10.702;2023-02-12T05:13:47;101077.25;;;5.66;100.00
45621;BME280;31345;51.522;10.702;2023-02-12T05:16:20;101082.50;;;5.59;100.00
45621;BME280;31345;51.522;10.702;2023-02-12T05:18:48;101084.94;;;5.70;100.00
45621;BME280;31345;51.522;10.702;2023-02-12T05:21:20;101094.34;;;5.81;100.00
45621;BME280;31345;51.522;10.702;2023-02-12T05:23:50;101089.16;;;5.79;100.00
45621;BME280;31345;51.522;10.702;2023-02-12T05:26:23;101093.47;;;5.80;100.00
45621;BME280;31345;51.522;10.702;2023-02-12T05:28:55;101098.75;;;5.75;100.00
45621;BME280;31345;51.522;10.702;2023-02-12T05:31:28;101090.56;;;6.04;100.00
45621;BME280;31345;51.522;10.702;2023-02-12T05:33:55;101092.28;;;6.03;100.00
45621;BME280;31345;51.522;10.702;2023-02-12T05:36:23;101086.16;;;6.09;100.00
45621;BME280;31345;51.522;10.702;2023-02-12T05:38:58;101082.13;;;5.89;100.00
45621;BME280;31345;51.522;10.702;2023-02-12T05:41:26;101093.22;;;6.00;100.00
45621;BME280;31345;51.522;10.702;2023-02-12T05:43:59;101092.47;;;5.92;100.00
45621;BME280;31345;51.522;10.702;2023-02-12T05:46:32;101093.41;;;5.85;100.00
45621;BME280;31345;51.522;10.702;2023-02-12T05:48:59;101087.16;;;6.00;100.00
45621;BME280;31345;51.522;10.702;2023-02-12T05:51:27;101089.66;;;6.08;100.00
45621;BME280;31345;51.522;10.702;2023-02-12T05:54:00;101088.84;;;6.02;100.00
45621;BME280;31345;51.522;10.702;2023-02-12T05:56:35;101092.63;;;5.80;100.00
45621;BME280;31345;51.522;10.702;2023-02-12T05:59:12;101092.50;;;5.87;100.00
45621;BME280;31345;51.522;10.702;2023-02-12T06:01:47;101094.28;;;5.87;100.00
45621;BME280;31345;51.522;10.702;2023-02-12T06:04:21;101093.25;;;5.96;100.00
45621;BME280;31345;51.522;10.702;2023-02-12T06:06:50;101093.41;;;5.86;100.00
45621;BME280;31345;51.522;10.702;2023-02-12T06:09:24;101090.66;;;5.97;100.00
45621;BME280;31345;51.522;10.702;2023-02-12T06:11:51;101094.84;;;6.06;100.00
45621;BME280;31345;51.522;10.702;2023-02-12T06:14:24;101101.03;;;5.97;100.00
45621;BME280;31345;51.522;10.702;2023-02-12T06:16:56;101094.22;;;5.88;100.00
45621;BME280;31345;51.522;10.702;2023-02-12T06:19:29;101096.59;;;6.06;100.00
45621;BME280;31345;51.522;10.702;2023-02-12T06:22:02;101095.84;;;5.97;100.00
45621;BME280;31345;51.522;10.702;2023-02-12T06:24:36;101098.34;;;6.04;100.00
45621;BME280;31345;51.522;10.702;2023-02-12T06:27:04;101094.88;;;6.05;100.00
45621;BME280;31345;51.522;10.702;2023-02-12T06:29:36;101109.56;;;6.07;100.00
45621;BME280;31345;51.522;10.702;2023-02-12T06:32:04;101107.81;;;6.08;100.00
45621;BME280;31345;51.522;10.702;2023-02-12T06:34:38;101104.50;;;5.98;100.00
45621;BME280;31345;51.522;10.702;2023-02-12T06:37:11;101111.25;;;6.10;100.00
45621;BME280;31345;51.522;10.702;2023-02-12T06:39:45;101112.19;;;6.04;100.00
45621;BME280;31345;51.522;10.702;2023-02-12T06:42:13;101106.22;;;5.97;100.00
45621;BME280;31345;51.522;10.702;2023-02-12T06:44:45;101115.69;;;6.01;100.00
45621;BME280;31345;51.522;10.702;2023-02-12T06:47:18;101126.00;;;6.08;100.00
45621;BME280;31345;51.522;10.702;2023-02-12T06:49:45;101121.81;;;5.96;100.00
45621;BME280;31345;51.522;10.702;2023-02-12T06:52:13;101125.31;;;5.93;100.00
45621;BME280;31345;51.522;10.702;2023-02-12T06:54:47;101132.28;;;5.93;100.00
45621;BME280;31345;51.522;10.702;2023-02-12T06:57:19;101129.72;;;5.89;100.00
45621;BME280;31345;51.522;10.702;2023-02-12T06:59:52;101137.47;;;5.91;100.00
45621;BME280;31345;51.522;10.702;2023-02-12T07:02:19;101134.03;;;5.91;100.00
45621;BME280;31345;51.522;10.702;2023-02-12T07:04:52;101136.56;;;5.95;100.00
45621;BME280;31345;51.522;10.702;2023-02-12T07:07:25;101136.66;;;5.87;100.00
45621;BME280;31345;51.522;10.702;2023-02-12T07:09:59;101136.63;;;5.89;100.00
45621;BME280;31345;51.522;10.702;2023-02-12T07:12:32;101139.19;;;5.94;100.00
45621;BME280;31345;51.522;10.702;2023-02-12T07:14:59;101135.63;;;5.99;100.00
45621;BME280;31345;51.522;10.702;2023-02-12T07:17:28;101149.59;;;5.91;100.00
45621;BME280;31345;51.522;10.702;2023-02-12T07:19:56;101146.06;;;5.96;100.00
45621;BME280;31345;51.522;10.702;2023-02-12T07:22:29;101144.94;;;6.16;100.00
45621;BME280;31345;51.522;10.702;2023-02-12T07:25:03;101142.41;;;6.08;100.00
45621;BME280;31345;51.522;10.702;2023-02-12T07:27:31;101142.56;;;5.97;100.00
45621;BME280;31345;51.522;10.702;2023-02-12T07:30:08;101146.06;;;5.96;100.00
45621;BME280;31345;51.522;10.702;2023-02-12T07:32:40;101155.66;;;5.91;100.00
45621;BME280;31345;51.522;10.702;2023-02-12T07:35:08;101157.16;;;6.08;100.00
45621;BME280;31345;51.522;10.702;2023-02-12T07:37:35;101159.75;;;6.09;100.00
45621;BME280;31345;51.522;10.702;2023-02-12T07:40:06;101164.84;;;6.14;100.00
45621;BME280;31345;51.522;10.702;2023-02-12T07:42:33;101159.59;;;6.20;100.00
45621;BME280;31345;51.522;10.702;2023-02-12T07:45:10;101169.09;;;6.21;100.00
45621;BME280;31345;51.522;10.702;2023-02-12T07:47:42;101173.47;;;6.18;100.00
45621;BME280;31345;51.522;10.702;2023-02-12T07:50:15;101173.34;;;6.27;100.00
45621;BME280;31345;51.522;10.702;2023-02-12T07:52:48;101175.97;;;6.24;100.00
45621;BME280;31345;51.522;10.702;2023-02-12T07:55:22;101176.78;;;6.29;100.00
45621;BME280;31345;51.522;10.702;2023-02-12T07:57:54;101186.31;;;6.28;100.00
45621;BME280;31345;51.522;10.702;2023-02-12T08:00:22;101182.81;;;6.30;100.00
45621;BME280;31345;51.522;10.702;2023-02-12T08:02:50;101190.63;;;6.30;100.00
45621;BME280;31345;51.522;10.702;2023-02-12T08:05:24;101192.22;;;6.40;100.00
45621;BME280;31345;51.522;10.702;2023-02-12T08:07:56;101198.41;;;6.31;100.00
45621;BME280;31345;51.522;10.702;2023-02-12T08:10:30;101193.03;;;6.42;100.00
45621;BME280;31345;51.522;10.702;2023-02-12T08:13:02;101191.97;;;6.57;100.00
45621;BME280;31345;51.522;10.702;2023-02-12T08:15:35;101199.63;;;6.66;100.00
45621;BME280;31345;51.522;10.702;2023-02-12T08:18:02;101201.34;;;6.66;100.00
45621;BME280;31345;51.522;10.702;2023-02-12T08:20:35;101197.75;;;6.75;100.00
45621;BME280;31345;51.522;10.702;2023-02-12T08:23:07;101199.69;;;6.60;100.00
45621;BME280;31345;51.522;10.702;2023-02-12T08:25:36;101194.16;;;6.84;100.00
45621;BME280;31345;51.522;10.702;2023-02-12T08:28:04;101196.81;;;6.79;100.00
45621;BME280;31345;51.522;10.702;2023-02-12T08:30:36;101191.50;;;6.87;100.00
45621;BME280;31345;51.522;10.702;2023-02-12T08:33:04;101203.84;;;6.74;100.00
45621;BME280;31345;51.522;10.702;2023-02-12T08:35:31;101197.88;;;6.67;100.00
45621;BME280;31345;51.522;10.702;2023-02-12T08:37:59;101200.03;;;6.97;100.00
45621;BME280;31345;51.522;10.702;2023-02-12T08:40:32;101196.81;;;6.79;100.00
45621;BME280;31345;51.522;10.702;2023-02-12T08:43:06;101201.91;;;6.87;100.00
45621;BME280;31345;51.522;10.702;2023-02-12T08:45:33;101207.59;;;7.11;100.00
45621;BME280;31345;51.522;10.702;2023-02-12T08:48:01;101212.78;;;7.11;100.00
45621;BME280;31345;51.522;10.702;2023-02-12T08:50:28;101213.47;;;7.21;100.00
45621;BME280;31345;51.522;10.702;2023-02-12T08:53:01;101209.06;;;7.26;100.00
45621;BME280;31345;51.522;10.702;2023-02-12T08:55:28;101218.63;;;7.22;100.00
45621;BME280;31345;51.522;10.702;2023-02-12T08:57:56;101219.34;;;7.30;100.00
45621;BME280;31345;51.522;10.702;2023-02-12T09:00:25;101225.22;;;7.42;100.00
45621;BME280;31345;51.522;10.702;2023-02-12T09:02:53;101226.44;;;7.24;100.00
45621;BME280;31345;51.522;10.702;2023-02-12T09:05:20;101221.25;;;7.21;100.00
45621;BME280;31345;51.522;10.702;2023-02-12T09:07:53;101230.91;;;7.15;100.00
45621;BME280;31345;51.522;10.702;2023-02-12T09:10:25;101236.19;;;7.11;100.00
45621;BME280;31345;51.522;10.702;2023-02-12T09:12:58;101240.41;;;7.18;100.00
45621;BME280;31345;51.522;10.702;2023-02-12T09:15:27;101242.88;;;7.26;100.00
45621;BME280;31345;51.522;10.702;2023-02-12T09:17:54;101244.41;;;7.38;100.00
45621;BME280;31345;51.522;10.702;2023-02-12T09:20:27;101246.22;;;7.34;100.00
45621;BME280;31345;51.522;10.702;2023-02-12T09:22:55;101248.66;;;7.42;100.00
45621;BME280;31345;51.522;10.702;2023-02-12T09:25:24;101248.84;;;7.33;100.00
45621;BME280;31345;51.522;10.702;2023-02-12T09:27:51;101243.66;;;7.31;100.00
45621;BME280;31345;51.522;10.702;2023-02-12T09:30:24;101244.50;;;7.33;100.00
45621;BME280;31345;51.522;10.702;2023-02-12T09:32:58;101257.28;;;7.46;100.00
45621;BME280;31345;51.522;10.702;2023-02-12T09:35:25;101250.25;;;7.51;100.00
45621;BME280;31345;51.522;10.702;2023-02-12T09:37:58;101252.69;;;7.60;100.00
45621;BME280;31345;51.522;10.702;2023-02-12T09:40:30;101255.47;;;7.49;100.00
45621;BME280;31345;51.522;10.702;2023-02-12T09:43:10;101266.75;;;7.50;100.00
45621;BME280;31345;51.522;10.702;2023-02-12T09:45:48;101261.34;;;7.62;100.00
45621;BME280;31345;51.522;10.702;2023-02-12T09:48:37;101263.53;;;7.35;100.00
45621;BME280;31345;51.522;10.702;2023-02-12T09:51:15;101262.59;;;7.38;100.00
45621;BME280;31345;51.522;10.702;2023-02-12T09:53:45;101265.19;;;7.39;100.00
45621;BME280;31345;51.522;10.702;2023-02-12T09:56:21;101267.69;;;7.46;100.00
45621;BME280;31345;51.522;10.702;2023-02-12T09:58:58;101268.56;;;7.44;100.00
45621;BME280;31345;51.522;10.702;2023-02-12T10:01:28;101271.25;;;7.41;100.00
45621;BME280;31345;51.522;10.702;2023-02-12T10:04:04;101273.44;;;7.66;100.00
45621;BME280;31345;51.522;10.702;2023-02-12T10:06:39;101271.88;;;7.54;100.00
45621;BME280;31345;51.522;10.702;2023-02-12T10:09:30;101276.97;;;7.62;100.00
45621;BME280;31345;51.522;10.702;2023-02-12T10:12:11;101274.53;;;7.53;100.00
45621;BME280;31345;51.522;10.702;2023-02-12T10:14:58;101279.56;;;7.64;100.00
45621;BME280;31345;51.522;10.702;2023-02-12T10:17:40;101281.22;;;7.68;100.00
45621;BME280;31345;51.522;10.702;2023-02-12T10:20:39;101279.78;;;7.50;100.00
45621;BME280;31345;51.522;10.702;2023-02-12T10:23:24;101278.31;;;7.85;100.00
45621;BME280;31345;51.522;10.702;2023-02-12T10:25:58;101273.03;;;7.38;100.00
45621;BME280;31345;51.522;10.702;2023-02-12T10:28:37;101282.69;;;7.29;100.00
45621;BME280;31345;51.522;10.702;2023-02-12T10:31:14;101277.03;;;7.59;100.00
45621;BME280;31345;51.522;10.702;2023-02-12T10:33:44;101271.97;;;7.50;100.00
45621;BME280;31345;51.522;10.702;2023-02-12T10:36:30;101285.44;;;7.75;100.00
45621;BME280;31345;51.522;10.702;2023-02-12T10:39:11;101276.53;;;7.86;100.00
45621;BME280;31345;51.522;10.702;2023-02-12T10:41:43;101278.63;;;7.68;100.00
45621;BME280;31345;51.522;10.702;2023-02-12T10:44:12;101285.53;;;7.69;100.00
45621;BME280;31345;51.522;10.702;2023-02-12T10:46:45;101280.22;;;7.75;100.00
45621;BME280;31345;51.522;10.702;2023-02-12T10:49:19;101281.78;;;7.82;100.00
45621;BME280;31345;51.522;10.702;2023-02-12T10:52:09;101282.00;;;7.72;100.00
45621;BME280;31345;51.522;10.702;2023-02-12T10:54:41;101275.06;;;7.72;100.00
45621;BME280;31345;51.522;10.702;2023-02-12T10:57:19;101270.41;;;7.88;100.00
45621;BME280;31345;51.522;10.702;2023-02-12T10:59:53;101269.84;;;7.72;100.00
45621;BME280;31345;51.522;10.702;2023-02-12T11:02:29;101265.06;;;7.96;100.00
45621;BME280;31345;51.522;10.702;2023-02-12T11:04:59;101269.38;;;7.97;100.00
45621;BME280;31345;51.522;10.702;2023-02-12T11:07:46;101270.00;;;8.10;100.00
45621;BME280;31345;51.522;10.702;2023-02-12T11:10:20;101267.41;;;8.08;100.00
45621;BME280;31345;51.522;10.702;2023-02-12T11:12:48;101262.94;;;8.15;100.00
45621;BME280;31345;51.522;10.702;2023-02-12T11:15:22;101260.47;;;8.09;100.00
45621;BME280;31345;51.522;10.702;2023-02-12T11:17:58;101261.34;;;8.08;100.00
45621;BME280;31345;51.522;10.702;2023-02-12T11:20:35;101256.78;;;8.18;100.00
45621;BME280;31345;51.522;10.702;2023-02-12T11:23:24;101251.69;;;8.13;100.00
45621;BME280;31345;51.522;10.702;2023-02-12T11:26:00;101246.66;;;8.46;100.00
45621;BME280;31345;51.522;10.702;2023-02-12T11:28:34;101249.97;;;8.53;100.00
45621;BME280;31345;51.522;10.702;2023-02-12T11:31:16;101240.09;;;8.28;100.00
45621;BME280;31345;51.522;10.702;2023-02-12T11:34:14;101243.78;;;8.57;100.00
45621;BME280;31345;51.522;10.702;2023-02-12T11:36:48;101245.75;;;8.47;100.00
45621;BME280;31345;51.522;10.702;2023-02-12T11:39:21;101248.28;;;8.51;100.00
45621;BME280;31345;51.522;10.702;2023-02-12T11:41:52;101241.41;;;8.48;100.00
45621;BME280;31345;51.522;10.702;2023-02-12T11:44:27;101244.00;;;8.48;100.00
45621;BME280;31345;51.522;10.702;2023-02-12T11:47:03;101244.97;;;8.44;100.00
45621;BME280;31345;51.522;10.702;2023-02-12T11:49:41;101241.50;;;8.43;100.00
45621;BME280;31345;51.522;10.702;2023-02-12T11:52:18;101242.41;;;8.41;100.00
45621;BME280;31345;51.522;10.702;2023-02-12T11:54:49;101236.47;;;8.36;100.00
45621;BME280;31345;51.522;10.702;2023-02-12T11:57:35;101239.22;;;8.28;100.00
45621;BME280;31345;51.522;10.702;2023-02-12T12:00:14;101235.81;;;8.26;100.00
45621;BME280;31345;51.522;10.702;2023-02-12T12:02:54;101241.72;;;8.32;100.00
45621;BME280;31345;51.522;10.702;2023-02-12T12:05:34;101238.84;;;8.45;100.00
45621;BME280;31345;51.522;10.702;2023-02-12T12:08:05;101239.13;;;8.32;100.00
45621;BME280;31345;51.522;10.702;2023-02-12T12:10:40;101235.53;;;8.38;100.00
45621;BME280;31345;51.522;10.702;2023-02-12T12:13:18;101235.81;;;8.26;100.00
45621;BME280;31345;51.522;10.702;2023-02-12T12:15:51;101235.59;;;8.35;100.00
45621;BME280;31345;51.522;10.702;2023-02-12T12:18:47;101240.72;;;8.40;100.00
45621;BME280;31345;51.522;10.702;2023-02-12T12:21:46;101236.25;;;8.45;100.00
45621;BME280;31345;51.522;10.702;2023-02-12T12:24:19;101235.25;;;8.51;100.00
45621;BME280;31345;51.522;10.702;2023-02-12T12:26:57;101245.94;;;8.40;100.00
45621;BME280;31345;51.522;10.702;2023-02-12T12:29:43;101243.03;;;8.52;100.00
45621;BME280;31345;51.522;10.702;2023-02-12T12:32:15;101246.56;;;8.51;100.00
45621;BME280;31345;51.522;10.702;2023-02-12T12:34:50;101234.06;;;8.64;100.00
45621;BME280;31345;51.522;10.702;2023-02-12T12:37:29;101234.38;;;8.50;100.00
45621;BME280;31345;51.522;10.702;2023-02-12T12:40:13;101237.50;;;8.66;100.00
45621;BME280;31345;51.522;10.702;2023-02-12T12:43:03;101242.03;;;8.59;100.00
45621;BME280;31345;51.522;10.702;2023-02-12T12:46:07;101225.41;;;8.64;100.00
45621;BME280;31345;51.522;10.702;2023-02-12T12:48:57;101226.69;;;8.83;100.00
45621;BME280;31345;51.522;10.702;2023-02-12T12:51:51;101222.56;;;8.73;100.00
45621;BME280;31345;51.522;10.702;2023-02-12T12:54:50;101228.72;;;8.70;100.00
45621;BME280;31345;51.522;10.702;2023-02-12T12:57:36;101226.25;;;8.64;100.00
45621;BME280;31345;51.522;10.702;2023-02-12T13:00:28;101228.78;;;8.67;100.00
45621;BME280;31345;51.522;10.702;2023-02-12T13:03:11;101228.13;;;8.59;100.00
45621;BME280;31345;51.522;10.702;2023-02-12T13:06:13;101223.81;;;8.58;100.00
45621;BME280;31345;51.522;10.702;2023-02-12T13:08:57;101216.78;;;8.60;100.00
45621;BME280;31345;51.522;10.702;2023-02-12T13:11:38;101213.25;;;8.63;100.00
45621;BME280;31345;51.522;10.702;2023-02-12T13:14:26;101222.94;;;8.57;100.00
45621;BME280;31345;51.522;10.702;2023-02-12T13:17:04;101216.03;;;8.55;100.00
45621;BME280;31345;51.522;10.702;2023-02-12T13:19:52;101210.59;;;8.64;100.00
45621;BME280;31345;51.522;10.702;2023-02-12T13:22:30;101207.88;;;8.70;100.00
45621;BME280;31345;51.522;10.702;2023-02-12T13:25:17;101209.78;;;8.62;100.00